createdAt,value
2019-02-15T00:00:37.765Z,30.20
2019-02-15T00:01:38.006Z,28.60
2019-02-15T00:02:38.218Z,26.90
2019-02-15T00:03:38.462Z,26.70
2019-02-15T00:04:38.802Z,28.50
2019-02-15T00:05:38.908Z,27.50
2019-02-15T00:06:39.151Z,29.30
2019-02-15T00:07:39.364Z,32.40
2019-02-15T00:08:39.581Z,28.10
2019-02-15T00:09:39.841Z,30.70
2019-02-15T00:10:40.084Z,30.10
2019-02-15T00:11:40.328Z,28.50
2019-02-15T00:12:40.655Z,32.20
2019-02-15T00:13:40.742Z,28.60
2019-02-15T00:14:41.018Z,30.10
2019-02-15T00:15:41.239Z,29.30
2019-02-15T00:16:41.477Z,33.70
2019-02-15T00:17:41.689Z,28.90
2019-02-15T00:18:41.923Z,29.00
2019-02-15T00:19:42.154Z,27.70
2019-02-15T00:20:42.475Z,29.20
2019-02-15T00:21:42.621Z,32.40
2019-02-15T00:22:42.826Z,27.90
2019-02-15T00:23:43.067Z,28.50
2019-02-15T00:24:43.311Z,30.50
2019-02-15T00:25:43.518Z,31.00
2019-02-15T00:26:43.773Z,26.90
2019-02-15T00:27:44.002Z,33.40
2019-02-15T00:28:44.275Z,29.00
2019-02-15T00:29:44.456Z,32.30
2019-02-15T00:30:44.693Z,29.00
2019-02-15T00:31:44.931Z,27.30
2019-02-15T00:32:45.143Z,26.00
2019-02-15T00:33:45.376Z,24.50
2019-02-15T00:34:45.628Z,28.60
2019-02-15T00:35:45.839Z,28.50
2019-02-15T00:36:46.112Z,29.60
2019-02-15T00:37:46.365Z,32.20
2019-02-15T00:38:46.529Z,28.80
2019-02-15T00:39:46.779Z,27.60
2019-02-15T00:40:46.999Z,24.40
2019-02-15T00:41:47.239Z,28.90
2019-02-15T00:42:47.432Z,30.00
2019-02-15T00:43:47.679Z,28.20
2019-02-15T00:44:47.946Z,34.70
2019-02-15T00:45:48.321Z,30.30
2019-02-15T00:46:48.403Z,31.00
2019-02-15T00:47:48.612Z,29.50
2019-02-15T00:48:49.095Z,32.00
2019-02-15T00:49:49.094Z,32.30
2019-02-15T00:50:49.325Z,32.40
2019-02-15T00:51:49.579Z,32.00
2019-02-15T00:52:49.774Z,30.90
2019-02-15T00:53:50.084Z,32.50
2019-02-15T00:54:50.243Z,33.50
2019-02-15T00:55:50.456Z,30.60
2019-02-15T00:56:50.706Z,32.90
2019-02-15T00:57:50.934Z,31.10
2019-02-15T00:58:51.152Z,30.90
2019-02-15T00:59:51.390Z,33.40
2019-02-15T01:00:51.628Z,29.00
2019-02-15T01:01:51.898Z,31.90
2019-02-15T01:02:52.085Z,29.00
2019-02-15T01:03:52.322Z,30.50
2019-02-15T01:04:52.553Z,31.20
2019-02-15T01:05:52.783Z,31.50
2019-02-15T01:06:53.047Z,29.10
2019-02-15T01:07:53.278Z,29.00
2019-02-15T01:08:53.486Z,33.20
2019-02-15T01:09:53.796Z,35.70
2019-02-15T01:10:53.918Z,31.40
2019-02-15T01:11:54.202Z,35.50
2019-02-15T01:12:54.430Z,37.00
2019-02-15T01:13:54.642Z,34.80
2019-02-15T01:14:54.890Z,34.90
2019-02-15T01:15:55.104Z,37.40
2019-02-15T01:16:55.328Z,32.10
2019-02-15T01:17:55.611Z,37.80
2019-02-15T01:18:55.920Z,36.20
2019-02-15T01:19:56.056Z,39.00
2019-02-15T01:20:56.269Z,35.00
2019-02-15T01:21:56.520Z,35.30
2019-02-15T01:22:56.746Z,34.50
2019-02-15T01:23:56.960Z,36.00
2019-02-15T01:24:57.206Z,35.50
2019-02-15T01:25:57.420Z,35.90
2019-02-15T01:26:57.753Z,38.30
2019-02-15T01:27:57.893Z,34.70
2019-02-15T01:28:58.108Z,33.10
2019-02-15T01:29:58.358Z,34.40
2019-02-15T01:30:58.577Z,33.90
2019-02-15T01:31:58.830Z,32.90
2019-02-15T01:32:59.034Z,34.00
2019-02-15T01:33:59.269Z,34.40
2019-02-15T01:34:59.632Z,33.90
2019-02-15T01:35:59.731Z,32.70
2019-02-15T01:36:59.984Z,32.40
2019-02-15T01:38:00.192Z,32.90
2019-02-15T01:39:00.427Z,34.70
2019-02-15T01:40:00.677Z,36.30
2019-02-15T01:41:00.888Z,32.50
2019-02-15T01:42:01.223Z,34.90
2019-02-15T01:43:01.403Z,31.20
2019-02-15T01:44:01.546Z,31.20
2019-02-15T01:45:01.818Z,31.40
2019-02-15T01:46:02.043Z,33.20
2019-02-15T01:47:02.273Z,34.00
2019-02-15T01:48:02.544Z,31.70
2019-02-15T01:49:02.728Z,31.80
2019-02-15T01:50:02.969Z,28.80
2019-02-15T01:51:03.263Z,31.80
2019-02-15T01:52:03.474Z,31.10
2019-02-15T01:53:03.674Z,37.70
2019-02-15T01:54:03.896Z,31.10
2019-02-15T01:55:04.101Z,34.80
2019-02-15T01:56:04.330Z,33.20
2019-02-15T01:57:04.588Z,34.80
2019-02-15T01:58:04.838Z,40.50
2019-02-15T01:59:05.046Z,31.70
2019-02-15T02:00:05.399Z,32.50
2019-02-15T02:01:05.522Z,33.70
2019-02-15T02:02:05.762Z,34.30
2019-02-15T02:03:06.047Z,35.70
2019-02-15T02:04:06.222Z,33.10
2019-02-15T02:05:06.452Z,32.90
2019-02-15T02:06:06.676Z,33.50
2019-02-15T02:07:06.923Z,33.10
2019-02-15T02:08:07.341Z,35.00
2019-02-15T02:09:07.410Z,33.00
2019-02-15T02:10:07.624Z,37.30
2019-02-15T02:11:07.854Z,33.30
2019-02-15T02:12:08.105Z,35.50
2019-02-15T02:13:08.336Z,33.00
2019-02-15T02:14:08.548Z,33.30
2019-02-15T02:15:08.780Z,35.10
2019-02-15T02:16:09.041Z,31.60
2019-02-15T02:17:09.226Z,30.50
2019-02-15T02:18:09.475Z,28.20
2019-02-15T02:19:09.691Z,32.50
2019-02-15T02:20:09.925Z,35.20
2019-02-15T02:21:10.170Z,33.30
2019-02-15T02:22:10.388Z,34.60
2019-02-15T02:23:10.620Z,31.80
2019-02-15T02:24:10.943Z,34.20
2019-02-15T02:25:11.073Z,30.90
2019-02-15T02:26:11.541Z,33.50
2019-02-15T02:27:11.534Z,35.60
2019-02-15T02:28:11.792Z,34.80
2019-02-15T02:29:12.002Z,34.90
2019-02-15T02:30:12.247Z,32.60
2019-02-15T02:31:12.505Z,31.50
2019-02-15T02:32:12.736Z,36.00
2019-02-15T02:33:13.011Z,33.40
2019-02-15T02:34:13.175Z,32.20
2019-02-15T02:35:13.402Z,31.10
2019-02-15T02:36:13.663Z,32.50
2019-02-15T02:37:13.879Z,30.50
2019-02-15T02:38:14.146Z,29.30
2019-02-15T02:39:14.340Z,32.60
2019-02-15T02:40:14.569Z,32.50
2019-02-15T02:41:14.951Z,36.30
2019-02-15T02:42:15.082Z,32.20
2019-02-15T02:43:15.344Z,33.00
2019-02-15T02:44:15.538Z,31.40
2019-02-15T02:45:15.750Z,31.10
2019-02-15T02:46:16.016Z,31.40
2019-02-15T02:47:16.243Z,30.40
2019-02-15T02:48:16.522Z,34.40
2019-02-15T02:49:16.817Z,33.30
2019-02-15T02:50:16.914Z,37.70
2019-02-15T02:51:17.174Z,30.50
2019-02-15T02:52:17.399Z,31.20
2019-02-15T02:53:17.647Z,34.10
2019-02-15T02:54:17.858Z,35.60
2019-02-15T02:55:18.088Z,32.60
2019-02-15T02:56:18.328Z,30.70
2019-02-15T02:57:18.570Z,33.20
2019-02-15T02:58:18.768Z,30.90
2019-02-15T02:59:18.984Z,34.00
2019-02-15T03:00:19.236Z,30.90
2019-02-15T03:01:19.470Z,31.70
2019-02-15T03:02:19.669Z,34.20
2019-02-15T03:03:19.935Z,35.10
2019-02-15T03:04:20.167Z,30.70
2019-02-15T03:05:20.453Z,33.10
2019-02-15T03:06:20.620Z,32.70
2019-02-15T03:07:20.844Z,31.00
2019-02-15T03:08:21.078Z,32.50
2019-02-15T03:09:21.333Z,36.40
2019-02-15T03:10:21.610Z,34.70
2019-02-15T03:11:21.823Z,38.20
2019-02-15T03:12:22.039Z,42.60
2019-02-15T03:13:22.291Z,39.40
2019-02-15T03:14:22.608Z,38.20
2019-02-15T03:15:22.771Z,40.00
2019-02-15T03:16:23.001Z,39.70
2019-02-15T03:17:23.219Z,39.10
2019-02-15T03:18:23.467Z,41.20
2019-02-15T03:19:23.675Z,40.40
2019-02-15T03:20:30.827Z,37.90
2019-02-15T03:21:25.174Z,37.20
2019-02-15T03:22:24.496Z,40.00
2019-02-15T03:23:24.616Z,39.60
2019-02-15T03:24:24.837Z,34.50
2019-02-15T03:25:25.088Z,38.30
2019-02-15T03:26:25.329Z,36.80
2019-02-15T03:27:25.554Z,35.90
2019-02-15T03:28:25.772Z,38.50
2019-02-15T03:29:26.019Z,38.70
2019-02-15T03:30:26.291Z,39.70
2019-02-15T03:31:26.486Z,39.40
2019-02-15T03:32:26.686Z,35.70
2019-02-15T03:33:26.937Z,41.30
2019-02-15T03:34:27.171Z,39.80
2019-02-15T03:35:27.360Z,42.50
2019-02-15T03:36:27.616Z,42.40
2019-02-15T03:37:27.839Z,38.10
2019-02-15T03:38:28.167Z,36.20
2019-02-15T03:39:28.304Z,37.60
2019-02-15T03:40:28.521Z,39.50
2019-02-15T03:41:28.788Z,41.10
2019-02-15T03:42:28.966Z,39.00
2019-02-15T03:43:29.201Z,39.70
2019-02-15T03:44:29.462Z,35.90
2019-02-15T03:45:29.676Z,40.70
2019-02-15T03:46:29.993Z,42.20
2019-02-15T03:47:30.141Z,39.70
2019-02-15T03:48:30.409Z,39.40
2019-02-15T03:49:30.623Z,41.20
2019-02-15T03:50:30.841Z,40.80
2019-02-15T03:51:31.088Z,41.20
2019-02-15T03:52:31.294Z,41.00
2019-02-15T03:53:31.528Z,38.90
2019-02-15T03:54:31.792Z,38.90
2019-02-15T03:55:32.081Z,39.40
2019-02-15T03:56:32.256Z,34.40
2019-02-15T03:57:32.428Z,34.60
2019-02-15T03:58:32.660Z,36.30
2019-02-15T03:59:32.924Z,35.70
2019-02-15T04:00:33.137Z,32.00
2019-02-15T04:01:33.429Z,42.70
2019-02-15T04:02:33.595Z,31.80
2019-02-15T04:03:34.064Z,33.90
2019-02-15T04:04:34.407Z,31.40
2019-02-15T04:05:34.401Z,35.60
2019-02-15T04:06:34.657Z,34.00
2019-02-15T04:07:34.859Z,36.40
2019-02-15T04:08:35.099Z,37.60
2019-02-15T04:09:35.321Z,34.50
2019-02-15T04:10:35.563Z,40.80
2019-02-15T04:11:35.863Z,36.50
2019-02-15T04:12:35.993Z,43.30
2019-02-15T04:13:36.229Z,40.40
2019-02-15T04:14:36.484Z,36.90
2019-02-15T04:15:36.677Z,31.00
2019-02-15T04:16:36.929Z,37.30
2019-02-15T04:17:37.149Z,39.90
2019-02-15T04:18:37.408Z,43.50
2019-02-15T04:19:37.655Z,41.00
2019-02-15T04:20:37.802Z,43.20
2019-02-15T04:21:38.094Z,41.60
2019-02-15T04:22:38.315Z,43.40
2019-02-15T04:23:38.566Z,40.40
2019-02-15T04:24:38.802Z,44.60
2019-02-15T04:25:39.044Z,47.20
2019-02-15T04:26:39.234Z,44.30
2019-02-15T04:27:39.521Z,42.20
2019-02-15T04:28:39.769Z,45.50
2019-02-15T04:29:39.975Z,44.20
2019-02-15T04:30:40.188Z,45.90
2019-02-15T04:31:40.437Z,40.60
2019-02-15T04:32:40.647Z,43.90
2019-02-15T04:33:40.879Z,40.80
2019-02-15T04:34:41.122Z,40.10
2019-02-15T04:35:41.356Z,40.70
2019-02-15T04:36:41.718Z,38.80
2019-02-15T04:37:41.819Z,38.20
2019-02-15T04:38:42.052Z,40.30
2019-02-15T04:39:42.296Z,41.30
2019-02-15T04:40:42.505Z,41.90
2019-02-15T04:41:42.763Z,37.30
2019-02-15T04:42:42.980Z,41.10
2019-02-15T04:43:43.190Z,40.70
2019-02-15T04:44:43.544Z,46.80
2019-02-15T04:45:43.665Z,44.20
2019-02-15T04:46:43.911Z,42.50
2019-02-15T04:47:44.138Z,36.50
2019-02-15T04:48:44.333Z,39.40
2019-02-15T04:49:44.617Z,37.20
2019-02-15T04:50:44.811Z,40.00
2019-02-15T04:51:45.044Z,37.00
2019-02-15T04:52:45.322Z,37.40
2019-02-15T04:53:45.466Z,42.40
2019-02-15T04:54:45.734Z,37.50
2019-02-15T04:55:45.951Z,37.00
2019-02-15T04:56:46.180Z,38.70
2019-02-15T04:57:46.439Z,34.60
2019-02-15T04:58:46.648Z,36.50
2019-02-15T04:59:46.915Z,36.50
2019-02-15T05:00:47.113Z,33.20
2019-02-15T05:01:47.313Z,35.70
2019-02-15T05:02:47.587Z,38.60
2019-02-15T05:03:47.791Z,37.30
2019-02-15T05:04:48.067Z,36.90
2019-02-15T05:05:48.233Z,34.60
2019-02-15T05:06:48.468Z,34.90
2019-02-15T05:07:48.728Z,34.20
2019-02-15T05:08:48.980Z,35.60
2019-02-15T05:09:49.282Z,41.50
2019-02-15T05:10:49.402Z,38.90
2019-02-15T05:11:49.632Z,36.60
2019-02-15T05:12:49.910Z,36.00
2019-02-15T05:13:50.118Z,34.80
2019-02-15T05:14:53.097Z,39.20
2019-02-15T05:15:50.577Z,35.40
2019-02-15T05:16:50.794Z,40.00
2019-02-15T05:17:51.197Z,34.80
2019-02-15T05:18:51.281Z,38.60
2019-02-15T05:19:51.541Z,39.40
2019-02-15T05:20:51.755Z,43.20
2019-02-15T05:21:51.951Z,37.60
2019-02-15T05:22:52.501Z,34.40
2019-02-15T05:23:52.458Z,31.90
2019-02-15T05:24:52.686Z,37.40
2019-02-15T05:25:52.990Z,36.70
2019-02-15T05:26:53.120Z,35.30
2019-02-15T05:27:53.381Z,36.50
2019-02-15T05:28:53.600Z,36.40
2019-02-15T05:29:53.835Z,33.70
2019-02-15T05:30:54.077Z,34.30
2019-02-15T05:31:54.306Z,33.80
2019-02-15T05:32:54.584Z,32.30
2019-02-15T05:33:54.791Z,32.20
2019-02-15T05:34:54.993Z,35.10
2019-02-15T05:35:55.233Z,34.00
2019-02-15T05:36:55.444Z,35.00
2019-02-15T05:37:55.695Z,31.50
2019-02-15T05:38:55.903Z,33.00
2019-02-15T05:39:56.128Z,35.20
2019-02-15T05:40:56.376Z,37.30
2019-02-15T05:41:56.633Z,33.40
2019-02-15T05:42:57.093Z,34.50
2019-02-15T05:43:57.075Z,32.80
2019-02-15T05:45:03.314Z,35.10
2019-02-15T05:45:58.564Z,33.70
2019-02-15T05:46:57.774Z,34.60
2019-02-15T05:47:58.047Z,34.70
2019-02-15T05:48:58.242Z,37.10
2019-02-15T05:49:58.496Z,40.90
2019-02-15T05:50:58.811Z,39.40
2019-02-15T05:51:58.935Z,34.20
2019-02-15T05:52:59.194Z,35.50
2019-02-15T05:53:59.394Z,37.10
2019-02-15T05:54:59.622Z,40.70
2019-02-15T05:55:59.854Z,39.40
2019-02-15T05:57:00.087Z,36.50
2019-02-15T05:58:00.370Z,41.30
2019-02-15T05:59:00.689Z,38.20
2019-02-15T06:00:00.788Z,37.60
2019-02-15T06:01:01.017Z,35.20
2019-02-15T06:02:01.244Z,37.60
2019-02-15T06:03:01.520Z,39.80
2019-02-15T06:04:01.712Z,39.30
2019-02-15T06:05:01.951Z,36.30
2019-02-15T06:06:02.199Z,38.70
2019-02-15T06:07:02.448Z,39.20
2019-02-15T06:08:02.669Z,40.30
2019-02-15T06:09:02.866Z,42.90
2019-02-15T06:10:03.113Z,38.50
2019-02-15T06:11:07.515Z,38.20
2019-02-15T06:12:03.543Z,42.60
2019-02-15T06:13:03.790Z,37.70
2019-02-15T06:14:04.022Z,46.00
2019-02-15T06:15:14.439Z,42.60
2019-02-15T06:16:05.483Z,43.60
2019-02-15T06:17:04.698Z,40.50
2019-02-15T06:18:04.934Z,40.70
2019-02-15T06:19:05.156Z,46.40
2019-02-15T06:20:05.413Z,44.60
2019-02-15T06:21:05.652Z,41.20
2019-02-15T06:22:05.872Z,44.20
2019-02-15T06:23:06.165Z,42.70
2019-02-15T06:24:06.408Z,47.50
2019-02-15T06:25:06.590Z,44.50
2019-02-15T06:26:06.820Z,42.90
2019-02-15T06:27:07.024Z,43.00
2019-02-15T06:28:07.287Z,37.00
2019-02-15T06:29:07.491Z,41.50
2019-02-15T06:30:07.710Z,40.30
2019-02-15T06:31:07.986Z,42.20
2019-02-15T06:32:08.320Z,52.00
2019-02-15T06:33:08.436Z,43.90
2019-02-15T06:34:08.658Z,47.30
2019-02-15T06:35:08.919Z,54.80
2019-02-15T06:36:09.163Z,50.70
2019-02-15T06:37:09.378Z,46.90
2019-02-15T06:38:09.603Z,47.50
2019-02-15T06:39:09.854Z,45.60
2019-02-15T06:40:10.168Z,40.20
2019-02-15T06:41:12.178Z,47.00
2019-02-15T06:42:10.546Z,45.50
2019-02-15T06:43:10.784Z,43.90
2019-02-15T06:44:11.036Z,46.80
2019-02-15T06:45:11.228Z,46.80
2019-02-15T06:46:11.496Z,42.40
2019-02-15T06:47:11.704Z,42.40
2019-02-15T06:48:11.972Z,43.60
2019-02-15T06:49:12.236Z,46.10
2019-02-15T06:50:12.371Z,45.80
2019-02-15T06:51:12.638Z,39.90
2019-02-15T06:52:12.867Z,43.60
2019-02-15T06:53:13.098Z,44.10
2019-02-15T06:54:13.355Z,40.80
2019-02-15T06:55:13.556Z,44.70
2019-02-15T06:56:13.862Z,38.20
2019-02-15T06:57:13.977Z,41.40
2019-02-15T06:58:14.224Z,43.90
2019-02-15T06:59:14.493Z,41.70
2019-02-15T07:00:14.686Z,45.30
2019-02-15T07:01:14.937Z,38.10
2019-02-15T07:02:15.169Z,40.70
2019-02-15T07:03:15.375Z,38.90
2019-02-15T07:04:15.685Z,39.40
2019-02-15T07:05:15.915Z,39.90
2019-02-15T07:06:16.096Z,40.10
2019-02-15T07:07:16.291Z,38.10
2019-02-15T07:08:16.522Z,42.00
2019-02-15T07:09:16.790Z,38.10
2019-02-15T07:10:17.002Z,41.60
2019-02-15T07:11:17.245Z,35.30
2019-02-15T07:12:17.472Z,36.90
2019-02-15T07:13:17.804Z,39.30
2019-02-15T07:14:17.943Z,39.80
2019-02-15T07:15:18.147Z,38.40
2019-02-15T07:16:18.397Z,41.90
2019-02-15T07:17:18.654Z,43.00
2019-02-15T07:18:18.820Z,38.20
2019-02-15T07:19:19.074Z,42.60
2019-02-15T07:20:19.298Z,36.50
2019-02-15T07:21:19.921Z,36.10
2019-02-15T07:22:19.761Z,34.80
2019-02-15T07:23:20.018Z,39.50
2019-02-15T07:24:20.240Z,34.60
2019-02-15T07:25:20.464Z,35.70
2019-02-15T07:26:20.715Z,36.80
2019-02-15T07:27:20.927Z,31.10
2019-02-15T07:28:21.157Z,31.90
2019-02-15T07:29:21.450Z,33.20
2019-02-15T07:30:21.600Z,30.70
2019-02-15T07:31:21.854Z,34.90
2019-02-15T07:32:22.083Z,33.60
2019-02-15T07:33:22.311Z,35.20
2019-02-15T07:34:22.584Z,30.80
2019-02-15T07:35:22.781Z,33.40
2019-02-15T07:36:22.996Z,29.20
2019-02-15T07:37:23.300Z,36.60
2019-02-15T07:38:23.461Z,30.40
2019-02-15T07:39:23.717Z,29.70
2019-02-15T07:40:23.938Z,29.50
2019-02-15T07:41:24.151Z,29.80
2019-02-15T07:42:24.416Z,28.10
2019-02-15T07:43:24.662Z,31.30
2019-02-15T07:44:24.936Z,26.40
2019-02-15T07:45:25.147Z,29.10
2019-02-15T07:46:25.413Z,28.30
2019-02-15T07:47:25.649Z,29.70
2019-02-15T07:48:25.811Z,25.40
2019-02-15T07:49:26.796Z,32.50
2019-02-15T07:50:26.309Z,28.40
2019-02-15T07:51:26.520Z,29.70
2019-02-15T07:52:26.735Z,26.90
2019-02-15T07:53:26.982Z,30.40
2019-02-15T07:54:27.361Z,27.60
2019-02-15T07:55:27.466Z,28.90
2019-02-15T07:56:27.679Z,24.60
2019-02-15T07:57:27.907Z,25.30
2019-02-15T07:58:28.132Z,23.70
2019-02-15T07:59:28.378Z,27.10
2019-02-15T08:00:28.625Z,22.10
2019-02-15T08:01:28.834Z,21.90
2019-02-15T08:02:29.144Z,22.30
2019-02-15T08:03:29.283Z,21.80
2019-02-15T08:04:29.533Z,22.20
2019-02-15T08:05:29.757Z,21.30
2019-02-15T08:06:29.977Z,22.90
2019-02-15T08:07:30.234Z,24.80
2019-02-15T08:08:30.434Z,26.50
2019-02-15T08:09:30.686Z,23.90
2019-02-15T08:10:30.961Z,23.50
2019-02-15T08:11:31.110Z,24.20
2019-02-15T08:12:31.369Z,20.40
2019-02-15T08:13:31.580Z,22.80
2019-02-15T08:14:31.823Z,20.40
2019-02-15T08:15:36.226Z,22.40
2019-02-15T08:16:32.289Z,20.10
2019-02-15T08:17:32.516Z,20.30
2019-02-15T08:18:32.787Z,20.20
2019-02-15T08:19:32.952Z,23.40
2019-02-15T08:20:33.181Z,19.10
2019-02-15T08:21:33.427Z,24.80
2019-02-15T08:22:33.670Z,19.50
2019-02-15T08:23:33.883Z,21.00
2019-02-15T08:24:34.130Z,19.50
2019-02-15T08:25:34.357Z,20.30
2019-02-15T08:26:34.632Z,20.40
2019-02-15T08:27:34.908Z,20.50
2019-02-15T08:28:35.043Z,19.50
2019-02-15T08:29:35.285Z,19.00
2019-02-15T08:30:35.498Z,18.40
2019-02-15T08:31:35.749Z,18.90
2019-02-15T08:32:35.993Z,20.10
2019-02-15T08:33:36.207Z,21.60
2019-02-15T08:34:36.456Z,21.20
2019-02-15T08:35:36.816Z,21.50
2019-02-15T08:36:36.928Z,22.80
2019-02-15T08:37:37.181Z,20.20
2019-02-15T08:38:37.395Z,18.70
2019-02-15T08:39:37.630Z,22.70
2019-02-15T08:40:37.889Z,25.30
2019-02-15T08:41:38.085Z,27.50
2019-02-15T08:42:38.337Z,23.50
2019-02-15T08:43:38.673Z,23.20
2019-02-15T08:44:38.783Z,21.80
2019-02-15T08:45:39.032Z,22.90
2019-02-15T08:46:39.272Z,22.00
2019-02-15T08:47:39.784Z,21.50
2019-02-15T08:48:45.951Z,27.70
2019-02-15T08:49:40.956Z,24.90
2019-02-15T08:50:40.224Z,22.70
2019-02-15T08:51:40.461Z,21.40
2019-02-15T08:52:40.630Z,27.00
2019-02-15T08:53:40.851Z,21.70
2019-02-15T08:54:41.095Z,24.60
2019-02-15T08:55:41.337Z,26.20
2019-02-15T08:56:41.558Z,22.90
2019-02-15T08:57:41.801Z,24.10
2019-02-15T08:58:42.017Z,25.40
2019-02-15T08:59:42.263Z,21.80
2019-02-15T09:00:42.774Z,27.70
2019-02-15T09:01:42.720Z,23.70
2019-02-15T09:02:42.965Z,23.30
2019-02-15T09:03:43.165Z,22.40
2019-02-15T09:04:43.393Z,27.30
2019-02-15T09:05:43.649Z,25.70
2019-02-15T09:06:43.877Z,23.90
2019-02-15T09:07:44.150Z,21.50
2019-02-15T09:08:44.426Z,25.10
2019-02-15T09:09:44.544Z,24.00
2019-02-15T09:10:44.807Z,22.70
2019-02-15T09:11:45.019Z,23.70
2019-02-15T09:12:45.263Z,24.30
2019-02-15T09:13:45.484Z,23.70
2019-02-15T09:14:45.702Z,27.80
2019-02-15T09:15:45.944Z,26.60
2019-02-15T09:16:46.264Z,25.50
2019-02-15T09:17:46.416Z,23.30
2019-02-15T09:18:46.634Z,24.50
2019-02-15T09:19:47.044Z,29.90
2019-02-15T09:20:47.122Z,26.90
2019-02-15T09:21:47.339Z,32.60
2019-02-15T09:22:47.589Z,27.70
2019-02-15T09:23:47.802Z,26.60
2019-02-15T09:24:48.059Z,27.40
2019-02-15T09:25:48.263Z,27.30
2019-02-15T09:26:48.498Z,28.80
2019-02-15T09:27:48.727Z,25.20
2019-02-15T09:28:48.942Z,28.10
2019-02-15T09:29:49.177Z,29.80
2019-02-15T09:30:49.422Z,26.30
2019-02-15T09:31:49.635Z,25.40
2019-02-15T09:32:49.955Z,26.80
2019-02-15T09:33:50.093Z,26.90
2019-02-15T09:34:50.324Z,24.40
2019-02-15T09:35:50.572Z,25.30
2019-02-15T09:36:50.808Z,23.60
2019-02-15T09:37:51.031Z,28.10
2019-02-15T09:38:51.253Z,26.50
2019-02-15T09:39:51.493Z,28.30
2019-02-15T09:40:51.779Z,25.80
2019-02-15T09:41:52.032Z,24.40
2019-02-15T09:42:52.178Z,25.00
2019-02-15T09:43:52.424Z,23.80
2019-02-15T09:44:52.646Z,29.60
2019-02-15T09:45:52.903Z,23.70
2019-02-15T09:46:53.128Z,26.50
2019-02-15T09:47:53.351Z,24.20
2019-02-15T09:48:53.617Z,22.80
2019-02-15T09:49:53.901Z,26.40
2019-02-15T09:50:54.068Z,24.60
2019-02-15T09:51:55.507Z,25.20
2019-02-15T09:52:54.497Z,24.00
2019-02-15T09:53:54.740Z,31.80
2019-02-15T09:54:54.992Z,25.40
2019-02-15T09:55:55.237Z,23.50
2019-02-15T09:56:55.503Z,24.30
2019-02-15T09:57:55.776Z,22.80
2019-02-15T09:58:55.908Z,27.00
2019-02-15T09:59:56.132Z,25.10
2019-02-15T10:00:56.385Z,22.90
2019-02-15T10:01:56.610Z,25.90
2019-02-15T10:02:56.830Z,26.60
2019-02-15T10:03:57.081Z,23.90
2019-02-15T10:04:57.276Z,25.30
2019-02-15T10:05:57.587Z,23.40
2019-02-15T10:06:57.745Z,27.60
2019-02-15T10:07:57.973Z,26.80
2019-02-15T10:08:58.220Z,22.70
2019-02-15T10:09:58.420Z,24.40
2019-02-15T10:10:58.674Z,25.80
2019-02-15T10:11:58.912Z,25.20
2019-02-15T10:12:59.128Z,25.50
2019-02-15T10:13:59.430Z,26.40
2019-02-15T10:14:59.581Z,26.70
2019-02-15T10:15:59.808Z,27.90
2019-02-15T10:17:00.027Z,28.90
2019-02-15T10:18:00.273Z,30.40
2019-02-15T10:19:00.529Z,25.30
2019-02-15T10:20:00.755Z,26.40
2019-02-15T10:21:00.974Z,24.70
2019-02-15T10:22:01.207Z,25.90
2019-02-15T10:23:01.483Z,31.60
2019-02-15T10:24:01.695Z,27.80
2019-02-15T10:25:01.932Z,30.30
2019-02-15T10:26:02.148Z,30.00
2019-02-15T10:27:02.358Z,27.20
2019-02-15T10:28:02.599Z,25.10
2019-02-15T10:29:02.861Z,26.80
2019-02-15T10:30:03.079Z,26.80
2019-02-15T10:31:03.449Z,24.20
2019-02-15T10:32:03.566Z,25.40
2019-02-15T10:33:03.792Z,23.10
2019-02-15T10:34:04.034Z,23.40
2019-02-15T10:35:04.279Z,26.20
2019-02-15T10:36:04.497Z,26.20
2019-02-15T10:37:04.704Z,26.50
2019-02-15T10:38:04.927Z,27.50
2019-02-15T10:39:05.521Z,27.00
2019-02-15T10:40:05.417Z,26.20
2019-02-15T10:41:05.633Z,29.10
2019-02-15T10:42:05.854Z,29.20
2019-02-15T10:43:06.069Z,25.50
2019-02-15T10:44:06.317Z,32.30
2019-02-15T10:45:06.557Z,25.10
2019-02-15T10:46:06.776Z,27.70
2019-02-15T10:47:13.870Z,25.70
2019-02-15T10:48:08.224Z,24.10
2019-02-15T10:49:07.464Z,25.40
2019-02-15T10:50:07.683Z,31.60
2019-02-15T10:51:07.919Z,26.50
2019-02-15T10:52:08.178Z,26.80
2019-02-15T10:53:08.402Z,23.10
2019-02-15T10:54:08.644Z,25.10
2019-02-15T10:55:08.929Z,23.80
2019-02-15T10:56:09.076Z,22.70
2019-02-15T10:57:09.366Z,22.70
2019-02-15T10:58:09.583Z,26.30
2019-02-15T10:59:11.122Z,21.90
2019-02-15T11:00:10.053Z,27.00
2019-02-15T11:01:10.260Z,27.10
2019-02-15T11:02:10.510Z,23.90
2019-02-15T11:03:10.756Z,25.90
2019-02-15T11:04:11.076Z,22.80
2019-02-15T11:05:11.215Z,24.50
2019-02-15T11:06:11.411Z,24.80
2019-02-15T11:07:11.711Z,24.00
2019-02-15T11:08:11.888Z,31.80
2019-02-15T11:09:12.135Z,25.90
2019-02-15T11:10:12.352Z,25.60
2019-02-15T11:11:12.582Z,23.60
2019-02-15T11:12:12.935Z,25.00
2019-02-15T11:13:13.034Z,23.20
2019-02-15T11:14:13.291Z,24.30
2019-02-15T11:15:13.498Z,21.50
2019-02-15T11:16:13.732Z,25.00
2019-02-15T11:17:13.989Z,22.60
2019-02-15T11:18:14.202Z,20.10
2019-02-15T11:19:14.464Z,24.10
2019-02-15T11:20:14.789Z,25.50
2019-02-15T11:21:14.957Z,22.70
2019-02-15T11:22:22.113Z,23.10
2019-02-15T11:23:15.417Z,24.20
2019-02-15T11:24:15.609Z,23.60
2019-02-15T11:25:15.824Z,24.70
2019-02-15T11:26:24.275Z,25.40
2019-02-15T11:27:22.974Z,25.40
2019-02-15T11:28:16.556Z,21.00
2019-02-15T11:29:16.736Z,23.30
2019-02-15T11:30:16.973Z,21.10
2019-02-15T11:31:17.206Z,21.10
2019-02-15T11:32:17.472Z,24.30
2019-02-15T11:33:17.677Z,19.40
2019-02-15T11:34:17.909Z,25.20
2019-02-15T11:35:18.109Z,20.50
2019-02-15T11:36:18.447Z,21.40
2019-02-15T11:37:18.625Z,20.30
2019-02-15T11:38:18.831Z,19.80
2019-02-15T11:39:19.073Z,22.60
2019-02-15T11:40:19.285Z,20.70
2019-02-15T11:41:19.545Z,24.90
2019-02-15T11:42:19.779Z,19.30
2019-02-15T11:43:19.987Z,20.90
2019-02-15T11:44:20.258Z,19.40
2019-02-15T11:45:20.556Z,20.40
2019-02-15T11:46:20.719Z,17.90
2019-02-15T11:47:20.941Z,20.00
2019-02-15T11:48:21.150Z,18.70
2019-02-15T11:49:21.430Z,14.70
2019-02-15T11:50:21.609Z,17.10
2019-02-15T11:51:21.851Z,17.10
2019-02-15T11:52:22.088Z,15.90
2019-02-15T11:53:22.437Z,18.90
2019-02-15T11:54:23.670Z,14.40
2019-02-15T11:55:22.758Z,13.90
2019-02-15T11:56:22.999Z,15.00
2019-02-15T11:57:23.253Z,18.00
2019-02-15T11:58:23.467Z,15.50
2019-02-15T11:59:23.698Z,15.40
2019-02-15T12:00:23.942Z,15.10
2019-02-15T12:01:24.261Z,17.00
2019-02-15T12:02:24.424Z,17.20
2019-02-15T12:03:24.652Z,15.00
2019-02-15T12:04:24.878Z,17.20
2019-02-15T12:05:25.119Z,13.60
2019-02-15T12:06:25.335Z,18.00
2019-02-15T12:07:25.581Z,17.10
2019-02-15T12:08:25.786Z,17.40
2019-02-15T12:09:26.051Z,20.00
2019-02-15T12:10:26.259Z,14.40
2019-02-15T12:11:26.479Z,14.10
2019-02-15T12:12:26.726Z,18.60
2019-02-15T12:13:26.927Z,14.00
2019-02-15T12:14:27.151Z,18.80
2019-02-15T12:15:27.419Z,15.20
2019-02-15T12:16:27.872Z,17.30
2019-02-15T12:17:27.919Z,10.70
2019-02-15T12:18:28.163Z,12.00
2019-02-15T12:19:28.317Z,13.40
2019-02-15T12:20:28.575Z,13.60
2019-02-15T12:21:28.796Z,15.80
2019-02-15T12:22:29.045Z,13.10
2019-02-15T12:23:29.264Z,14.40
2019-02-15T12:24:29.485Z,10.50
2019-02-15T12:25:29.727Z,10.30
2019-02-15T12:26:30.075Z,12.50
2019-02-15T12:27:30.193Z,15.00
2019-02-15T12:28:30.639Z,14.30
2019-02-15T12:29:30.637Z,11.20
2019-02-15T12:30:30.869Z,12.90
2019-02-15T12:31:31.109Z,12.10
2019-02-15T12:32:31.344Z,13.40
2019-02-15T12:33:31.566Z,11.00
2019-02-15T12:34:32.141Z,11.10
2019-02-15T12:35:32.037Z,12.30
2019-02-15T12:36:32.264Z,11.80
2019-02-15T12:37:32.517Z,12.70
2019-02-15T12:38:32.760Z,9.50
2019-02-15T12:39:32.961Z,11.30
2019-02-15T12:40:33.207Z,11.70
2019-02-15T12:41:33.398Z,11.30
2019-02-15T12:42:33.718Z,11.50
2019-02-15T12:43:33.868Z,12.60
2019-02-15T12:44:34.102Z,10.00
2019-02-15T12:45:34.347Z,9.20
2019-02-15T12:46:34.548Z,13.40
2019-02-15T12:47:34.817Z,11.00
2019-02-15T12:48:35.046Z,12.00
2019-02-15T12:49:35.252Z,9.60
2019-02-15T12:50:35.557Z,9.60
2019-02-15T12:51:35.691Z,10.20
2019-02-15T12:52:35.936Z,11.60
2019-02-15T12:53:36.165Z,24.90
2019-02-15T12:54:36.386Z,11.90
2019-02-15T12:55:36.638Z,12.90